Terminal Aerodrome Forecast
Issued by NWS

Home | Current Version | Previous Version | Text Only | Print | Product List | Glossary On
Versions: 1 2 3 4 5 6 7 8 9 10 11 12 13
968
FTUS46 KPDT 302320
TAFRDM
TAF
KRDM 302320Z 0100/0124 36011KT P6SM SCT050
     FM010300 36006KT P6SM FEW050
     FM010900 VRB04KT P6SM SKC
     FM012000 35006KT P6SM SCT080=

USA.gov is the U.S. government's official web portal to all federal, state and local government web resources and services.